Bville, Texas
Current Conditions -  °F | °C
As of 1:53 PM on Friday 28 Nov 2014 (Local Time) from KBRO Reporting Station
Clear Clear  
Wind Chill: 77°   Ceiling: Unl
Heat Index: 79°   Visibility: 10mi
Dew Point: 56°   Wind: 17mph
Humidity: 48%   Direction: 170°S
Pressure: 30.19"   Gusts: NA
Location:  26.0002°N, 97.5729°W
Report Text: KBRO 281953Z 17015KT 10SM CLR 25/13 A3019 RMK AO2 SLP223 T02500133
Loading
Personal Weather Stations






























Interactive Weather Map New forecast layout! Learn more

10-Day Weather Forecast

Advertisements
Track Severe Weather on mobile